Time;durP1;ratioP1;P1;durP2;ratioP2;P2;SDS_P1;SDS_P2;PMS_P1;PMS_P2;Temp;Humidity;BMP_temperature;BMP_pressure;BME280_temperature;BME280_humidity;BME280_pressure;Samples;Min_cycle;Max_cycle;Signal;HPM_P1;HPM_P2
2021/09/23 00:00:54;;;;;;;43.67;31.80;;;;;;;;;;2082297;28;20180;-58
2021/09/23 00:01:54;;;;;;;39.25;30.38;;;;;;;;;;2082443;28;20168;-56
2021/09/23 00:04:55;;;;;;;47.45;31.80;;;;;;;;;;2089668;28;20589;-60
2021/09/23 00:05:56;;;;;;;49.63;32.08;;;;;;;;;;2086677;28;20195;-58
2021/09/23 00:06:56;;;;;;;50.45;31.95;;;;;;;;;;2089480;28;20207;-57
2021/09/23 00:07:57;;;;;;;45.13;31.65;;;;;;;;;;2089268;28;20193;-55
2021/09/23 00:08:57;;;;;;;44.42;32.53;;;;;;;;;;2081303;28;20180;-60
2021/09/23 00:09:58;;;;;;;45.97;33.97;;;;;;;;;;2080776;28;20161;-60
2021/09/23 00:10:58;;;;;;;44.63;32.47;;;;;;;;;;2089884;28;20168;-59
2021/09/23 00:11:58;;;;;;;51.55;33.97;;;;;;;;;;2088665;28;20192;-57
2021/09/23 00:12:59;;;;;;;46.20;33.28;;;;;;;;;;2088518;28;20160;-62
2021/09/23 00:13:59;;;;;;;49.22;35.08;;;;;;;;;;2089219;28;20229;-56
2021/09/23 00:14:59;;;;;;;40.00;31.48;;;;;;;;;;2089946;28;20160;-62
2021/09/23 00:16:00;;;;;;;44.92;33.75;;;;;;;;;;2089565;28;20606;-58
2021/09/23 00:17:00;;;;;;;44.92;34.05;;;;;;;;;;2088921;28;20562;-62
2021/09/23 00:18:03;;;;;;;46.42;32.17;;;;;;;;;;2089202;28;20254;-60
2021/09/23 00:19:03;;;;;;;43.17;32.88;;;;;;;;;;2081281;28;20636;-61
2021/09/23 00:20:04;;;;;;;45.58;33.15;;;;;;;;;;2081200;28;20208;-61
2021/09/23 00:21:06;;;;;;;43.05;33.25;;;;;;;;;;2089998;28;20159;-58
2021/09/23 00:22:06;;;;;;;43.67;33.70;;;;;;;;;;2090169;28;20183;-60
2021/09/23 00:23:07;;;;;;;46.72;34.03;;;;;;;;;;2074462;28;20252;-63
2021/09/23 00:24:08;;;;;;;40.58;31.85;;;;;;;;;;2073325;28;20168;-62
2021/09/23 00:25:08;;;;;;;42.90;32.15;;;;;;;;;;2081918;28;20618;-61
2021/09/23 00:26:09;;;;;;;46.35;33.55;;;;;;;;;;2081871;28;20189;-64
2021/09/23 00:27:09;;;;;;;43.45;33.50;;;;;;;;;;2082112;28;20258;-64
2021/09/23 00:28:10;;;;;;;45.47;33.40;;;;;;;;;;2088892;28;20632;-63
2021/09/23 00:29:10;;;;;;;47.03;34.17;;;;;;;;;;2081274;28;20298;-62
2021/09/23 00:30:11;;;;;;;51.10;36.40;;;;;;;;;;2080778;28;20172;-63
2021/09/23 00:31:11;;;;;;;46.47;35.28;;;;;;;;;;2097562;28;20249;-62
2021/09/23 00:32:12;;;;;;;51.95;36.00;;;;;;;;;;2097798;28;20565;-62
2021/09/23 00:33:12;;;;;;;48.38;34.33;;;;;;;;;;2080997;28;20611;-62
2021/09/23 00:34:12;;;;;;;48.13;34.45;;;;;;;;;;2073660;28;20229;-63
2021/09/23 00:35:12;;;;;;;46.38;35.03;;;;;;;;;;2073198;28;20185;-61
2021/09/23 00:36:13;;;;;;;52.45;37.40;;;;;;;;;;2097609;28;20252;-62
2021/09/23 00:37:15;;;;;;;50.63;36.65;;;;;;;;;;2081993;28;20258;-58
2021/09/23 00:38:15;;;;;;;44.42;33.55;;;;;;;;;;2083968;28;20366;-62
2021/09/23 00:39:15;;;;;;;50.25;35.75;;;;;;;;;;2072323;28;20648;-63
2021/09/23 00:40:17;;;;;;;50.20;35.63;;;;;;;;;;2072939;28;20181;-62
2021/09/23 00:41:17;;;;;;;50.35;34.53;;;;;;;;;;2080437;28;20203;-63
2021/09/23 00:42:18;;;;;;;48.40;32.75;;;;;;;;;;2063712;28;20169;-62
2021/09/23 00:43:18;;;;;;;45.65;32.83;;;;;;;;;;2080592;28;20172;-62
2021/09/23 00:44:20;;;;;;;46.05;32.88;;;;;;;;;;2080157;28;20222;-62
2021/09/23 00:45:21;;;;;;;43.35;33.70;;;;;;;;;;2080935;28;20230;-62
2021/09/23 00:46:22;;;;;;;49.05;34.53;;;;;;;;;;2079261;28;20293;-63
2021/09/23 00:47:22;;;;;;;47.95;34.90;;;;;;;;;;2071638;28;20177;-63
2021/09/23 00:48:23;;;;;;;47.47;33.90;;;;;;;;;;2070786;28;20239;-62
2021/09/23 00:49:23;;;;;;;44.47;34.72;;;;;;;;;;2071102;28;20267;-62
2021/09/23 00:50:23;;;;;;;48.25;34.17;;;;;;;;;;2064223;28;20178;-62
2021/09/23 00:51:28;;;;;;;52.88;36.08;;;;;;;;;;2072955;28;20208;-62
2021/09/23 00:52:31;;;;;;;50.38;36.17;;;;;;;;;;2068991;28;20181;-62
2021/09/23 00:53:31;;;;;;;49.00;33.85;;;;;;;;;;2080471;28;20181;-61
2021/09/23 00:54:32;;;;;;;46.38;35.85;;;;;;;;;;2073181;28;20196;-62
2021/09/23 00:55:32;;;;;;;50.67;35.97;;;;;;;;;;2072305;28;20269;-63
2021/09/23 00:56:33;;;;;;;50.22;36.35;;;;;;;;;;2073938;28;20738;-63
2021/09/23 00:57:34;;;;;;;49.90;37.63;;;;;;;;;;2073990;28;20204;-62
2021/09/23 00:58:35;;;;;;;50.22;38.25;;;;;;;;;;2080410;28;20191;-63
2021/09/23 00:59:35;;;;;;;47.58;35.10;;;;;;;;;;2080544;28;20180;-64
2021/09/23 01:00:36;;;;;;;51.13;35.90;;;;;;;;;;2084592;28;20267;-63
2021/09/23 01:01:45;;;;;;;51.83;35.58;;;;;;;;;;2083167;28;20176;-63
2021/09/23 01:02:46;;;;;;;48.40;35.75;;;;;;;;;;2084045;28;20168;-62
2021/09/23 01:03:47;;;;;;;52.65;36.45;;;;;;;;;;2082100;28;20184;-63
2021/09/23 01:04:48;;;;;;;47.25;35.67;;;;;;;;;;2080697;28;20187;-64
2021/09/23 01:05:48;;;;;;;46.72;33.75;;;;;;;;;;2071442;28;20267;-63
2021/09/23 01:06:51;;;;;;;44.20;35.40;;;;;;;;;;2053470;28;20182;-62
2021/09/23 01:07:51;;;;;;;43.38;34.45;;;;;;;;;;2067024;28;20204;-63
2021/09/23 01:08:55;;;;;;;47.92;34.60;;;;;;;;;;2077573;28;20172;-63
2021/09/23 01:09:56;;;;;;;47.30;35.25;;;;;;;;;;2075456;28;20169;-63
2021/09/23 01:10:57;;;;;;;46.80;34.45;;;;;;;;;;2072519;28;20703;-64
2021/09/23 01:12:02;;;;;;;47.95;35.83;;;;;;;;;;2065700;28;20232;-62
2021/09/23 01:13:03;;;;;;;47.30;35.92;;;;;;;;;;2072621;28;20306;-61
2021/09/23 01:14:21;;;;;;;47.70;34.78;;;;;;;;;;2074586;28;20169;-65
2021/09/23 01:15:24;;;;;;;53.22;35.95;;;;;;;;;;2063245;28;20666;-64
2021/09/23 01:16:24;;;;;;;52.60;37.03;;;;;;;;;;2063664;28;20190;-63
2021/09/23 01:17:39;;;;;;;47.80;36.30;;;;;;;;;;2079968;28;20203;-59
2021/09/23 01:18:40;;;;;;;50.63;36.38;;;;;;;;;;2079361;28;20180;-63
2021/09/23 01:19:41;;;;;;;52.60;35.67;;;;;;;;;;2080201;28;20171;-63
2021/09/23 01:20:45;;;;;;;55.22;39.40;;;;;;;;;;2065947;28;20174;-62
2021/09/23 01:21:45;;;;;;;48.88;36.33;;;;;;;;;;2074114;28;20256;-61
2021/09/23 01:22:45;;;;;;;53.85;36.88;;;;;;;;;;2082642;28;20192;-62
2021/09/23 01:23:50;;;;;;;52.10;38.15;;;;;;;;;;2088282;28;20206;-63
2021/09/23 01:24:50;;;;;;;53.53;37.05;;;;;;;;;;2087367;28;20171;-62
2021/09/23 01:25:51;;;;;;;47.05;34.47;;;;;;;;;;2079787;28;20210;-61
2021/09/23 01:26:55;;;;;;;52.03;35.80;;;;;;;;;;2065980;28;20204;-63
2021/09/23 01:28:05;;;;;;;47.42;34.80;;;;;;;;;;2076047;28;20183;-60
2021/09/23 01:29:20;;;;;;;45.63;36.38;;;;;;;;;;2078658;28;20171;-62
2021/09/23 01:30:25;;;;;;;50.88;36.03;;;;;;;;;;2067784;28;20591;-62
2021/09/23 01:31:26;;;;;;;48.83;34.40;;;;;;;;;;2071764;28;20208;-59
2021/09/23 01:32:26;;;;;;;49.90;35.65;;;;;;;;;;2080014;28;20164;-63
2021/09/23 01:33:27;;;;;;;48.08;33.85;;;;;;;;;;2079262;28;20194;-60
2021/09/23 01:34:29;;;;;;;45.47;34.30;;;;;;;;;;2072419;28;20177;-63
2021/09/23 01:35:29;;;;;;;43.47;33.35;;;;;;;;;;2069370;28;20227;-63
2021/09/23 01:36:30;;;;;;;42.28;31.17;;;;;;;;;;2072258;28;20196;-61
2021/09/23 01:37:30;;;;;;;38.67;30.35;;;;;;;;;;2079339;28;20192;-62
2021/09/23 01:38:30;;;;;;;38.08;29.58;;;;;;;;;;2081301;28;20259;-63
2021/09/23 01:39:31;;;;;;;36.75;28.85;;;;;;;;;;2079817;28;20199;-63
2021/09/23 01:40:40;;;;;;;40.92;29.60;;;;;;;;;;2079145;28;20191;-63
2021/09/23 01:41:43;;;;;;;40.33;28.33;;;;;;;;;;2071444;28;20173;-64
2021/09/23 01:42:44;;;;;;;34.33;27.33;;;;;;;;;;2061523;28;20249;-62
2021/09/23 01:43:44;;;;;;;34.08;26.75;;;;;;;;;;2071549;28;20176;-63
2021/09/23 01:44:45;;;;;;;35.53;26.63;;;;;;;;;;2078749;28;20231;-60
2021/09/23 01:45:46;;;;;;;33.78;25.58;;;;;;;;;;2071463;28;20201;-64
2021/09/23 01:46:47;;;;;;;32.38;25.65;;;;;;;;;;2071928;28;20204;-61
2021/09/23 01:48:01;;;;;;;31.60;23.65;;;;;;;;;;2070276;28;20172;-58
2021/09/23 01:49:04;;;;;;;33.83;25.42;;;;;;;;;;2079064;28;20283;-62
2021/09/23 01:50:06;;;;;;;33.42;26.90;;;;;;;;;;2079653;28;20684;-64
2021/09/23 01:51:08;;;;;;;30.10;25.38;;;;;;;;;;2079912;28;20684;-63
2021/09/23 01:52:08;;;;;;;32.80;25.48;;;;;;;;;;2071863;28;20179;-63
2021/09/23 01:53:08;;;;;;;32.13;25.50;;;;;;;;;;2069312;28;20653;-64
2021/09/23 01:54:10;;;;;;;34.38;26.35;;;;;;;;;;2072002;28;20207;-62
2021/09/23 01:55:11;;;;;;;32.10;24.60;;;;;;;;;;2079570;28;20168;-62
2021/09/23 01:56:12;;;;;;;30.63;23.85;;;;;;;;;;2078940;28;20568;-57
2021/09/23 01:57:12;;;;;;;29.92;24.20;;;;;;;;;;2069596;28;20209;-63
2021/09/23 01:58:13;;;;;;;30.88;24.98;;;;;;;;;;2068699;28;20172;-63
2021/09/23 01:59:14;;;;;;;32.75;24.40;;;;;;;;;;2080245;28;20195;-63
2021/09/23 02:00:15;;;;;;;31.20;23.90;;;;;;;;;;2080003;28;20169;-58
2021/09/23 02:01:21;;;;;;;30.65;23.95;;;;;;;;;;2072318;28;20434;-64
2021/09/23 02:02:21;;;;;;;31.17;24.85;;;;;;;;;;2079385;28;20175;-63
2021/09/23 02:03:22;;;;;;;29.23;23.65;;;;;;;;;;2072290;28;20165;-64
2021/09/23 02:04:39;;;;;;;30.38;23.67;;;;;;;;;;2067177;28;20221;-63
2021/09/23 02:05:40;;;;;;;29.52;22.75;;;;;;;;;;2071570;28;20200;-61
2021/09/23 02:06:40;;;;;;;30.67;22.70;;;;;;;;;;2071226;28;20204;-63
2021/09/23 02:07:40;;;;;;;29.23;22.85;;;;;;;;;;2075532;28;20164;-63
2021/09/23 02:08:47;;;;;;;27.90;23.00;;;;;;;;;;2078131;28;20187;-62
2021/09/23 02:09:47;;;;;;;29.10;23.30;;;;;;;;;;2081167;28;20222;-63
2021/09/23 02:10:48;;;;;;;31.05;22.98;;;;;;;;;;2077051;28;20712;-62
2021/09/23 02:11:48;;;;;;;27.55;22.30;;;;;;;;;;2071430;28;20340;-62
2021/09/23 02:12:49;;;;;;;31.45;23.90;;;;;;;;;;2071693;28;20663;-63
2021/09/23 02:13:50;;;;;;;29.30;22.13;;;;;;;;;;2071823;28;20646;-61
2021/09/23 02:14:51;;;;;;;26.38;21.55;;;;;;;;;;2071154;28;20260;-63
2021/09/23 02:15:51;;;;;;;28.23;22.63;;;;;;;;;;2071128;28;20177;-59
2021/09/23 02:16:53;;;;;;;27.10;21.77;;;;;;;;;;2072008;28;20173;-57
2021/09/23 02:18:16;;;;;;;27.67;22.00;;;;;;;;;;2062077;28;20177;-59
2021/09/23 02:19:17;;;;;;;29.17;23.48;;;;;;;;;;2071828;28;20637;-57
2021/09/23 02:20:17;;;;;;;26.45;21.95;;;;;;;;;;2070395;28;20664;-58
2021/09/23 02:21:22;;;;;;;26.48;22.20;;;;;;;;;;2079038;28;20172;-54
2021/09/23 02:22:24;;;;;;;28.65;22.00;;;;;;;;;;2080286;28;20613;-56
2021/09/23 02:23:27;;;;;;;29.27;23.92;;;;;;;;;;2071950;28;20227;-59
2021/09/23 02:24:27;;;;;;;31.15;23.30;;;;;;;;;;2071425;28;20169;-61
2021/09/23 02:25:27;;;;;;;30.08;22.02;;;;;;;;;;2075441;28;20165;-61
2021/09/23 02:26:27;;;;;;;31.10;22.50;;;;;;;;;;2088162;28;20199;-61
2021/09/23 02:27:28;;;;;;;28.05;21.85;;;;;;;;;;2080475;28;20173;-61
2021/09/23 02:28:30;;;;;;;29.73;22.48;;;;;;;;;;2072706;28;20224;-62
2021/09/23 02:29:30;;;;;;;29.75;22.38;;;;;;;;;;2078821;28;20187;-60
2021/09/23 02:30:30;;;;;;;28.17;22.27;;;;;;;;;;2080760;28;20707;-62
2021/09/23 02:31:32;;;;;;;28.27;22.35;;;;;;;;;;2069220;28;20177;-60
2021/09/23 02:32:33;;;;;;;31.00;23.42;;;;;;;;;;2081350;28;20184;-63
2021/09/23 02:33:34;;;;;;;24.63;20.98;;;;;;;;;;2067747;28;20647;-61
2021/09/23 02:34:34;;;;;;;29.75;22.75;;;;;;;;;;2081323;28;20180;-61
2021/09/23 02:35:34;;;;;;;29.05;22.85;;;;;;;;;;2090413;28;20174;-61
2021/09/23 02:36:35;;;;;;;26.83;23.63;;;;;;;;;;2078900;28;20203;-61
2021/09/23 02:37:36;;;;;;;30.25;23.20;;;;;;;;;;2078043;28;20211;-61
2021/09/23 02:38:36;;;;;;;29.95;23.33;;;;;;;;;;2088448;28;20683;-63
2021/09/23 02:39:36;;;;;;;27.42;22.55;;;;;;;;;;2079684;28;20972;-63
2021/09/23 02:40:37;;;;;;;28.45;22.58;;;;;;;;;;2073410;28;20169;-62
2021/09/23 02:41:37;;;;;;;25.88;22.27;;;;;;;;;;2072826;28;20279;-66
2021/09/23 02:42:37;;;;;;;31.10;23.42;;;;;;;;;;2080892;28;20172;-63
2021/09/23 02:43:38;;;;;;;28.25;22.58;;;;;;;;;;2080797;28;20168;-63
2021/09/23 02:44:38;;;;;;;29.50;22.98;;;;;;;;;;2078700;28;20195;-62
2021/09/23 02:45:38;;;;;;;31.27;22.92;;;;;;;;;;2081490;28;20222;-61
2021/09/23 02:46:39;;;;;;;26.60;22.65;;;;;;;;;;2080992;28;20196;-63
2021/09/23 02:47:39;;;;;;;28.63;22.85;;;;;;;;;;2081736;28;20179;-62
2021/09/23 02:48:40;;;;;;;32.97;22.83;;;;;;;;;;2080209;28;20578;-62
2021/09/23 02:49:40;;;;;;;30.30;23.27;;;;;;;;;;2072982;28;20547;-63
2021/09/23 02:50:40;;;;;;;29.08;24.85;;;;;;;;;;2072639;28;20172;-61
2021/09/23 02:51:40;;;;;;;30.42;22.58;;;;;;;;;;2073022;28;20181;-61
2021/09/23 02:52:41;;;;;;;32.90;22.88;;;;;;;;;;2073564;28;20209;-63
2021/09/23 02:53:43;;;;;;;28.95;22.85;;;;;;;;;;2077880;28;20680;-61
2021/09/23 02:54:44;;;;;;;28.92;24.25;;;;;;;;;;2080582;28;20680;-62
2021/09/23 02:55:44;;;;;;;30.15;22.95;;;;;;;;;;2086930;28;20176;-61
2021/09/23 02:56:44;;;;;;;26.83;22.92;;;;;;;;;;2074446;28;20177;-62
2021/09/23 02:57:44;;;;;;;31.40;24.23;;;;;;;;;;2072635;28;20216;-62
2021/09/23 02:58:47;;;;;;;32.70;24.58;;;;;;;;;;2079917;28;20251;-60
2021/09/23 02:59:47;;;;;;;31.58;23.98;;;;;;;;;;2084571;28;20204;-62
2021/09/23 03:00:47;;;;;;;28.95;23.40;;;;;;;;;;2080378;28;20168;-63
2021/09/23 03:01:47;;;;;;;30.02;23.30;;;;;;;;;;2064896;28;20166;-63
2021/09/23 03:02:47;;;;;;;31.20;24.23;;;;;;;;;;2063813;28;20300;-63
2021/09/23 03:03:48;;;;;;;30.80;24.92;;;;;;;;;;2072061;28;20265;-63
2021/09/23 03:04:48;;;;;;;31.73;25.17;;;;;;;;;;2072698;28;20209;-60
2021/09/23 03:05:49;;;;;;;30.25;25.02;;;;;;;;;;2073385;28;20173;-62
2021/09/23 03:06:49;;;;;;;32.90;26.38;;;;;;;;;;2081191;28;20207;-62
2021/09/23 03:07:49;;;;;;;30.02;24.38;;;;;;;;;;2080717;28;20181;-62
2021/09/23 03:08:49;;;;;;;31.65;24.35;;;;;;;;;;2078336;28;21600;-60
2021/09/23 03:09:50;;;;;;;33.63;25.77;;;;;;;;;;2078908;28;20267;-64
2021/09/23 03:10:50;;;;;;;32.63;25.63;;;;;;;;;;2072472;28;20184;-62
2021/09/23 03:11:50;;;;;;;34.30;25.95;;;;;;;;;;2072859;28;20191;-63
2021/09/23 03:12:51;;;;;;;35.40;27.50;;;;;;;;;;2076337;28;20191;-62
2021/09/23 03:13:51;;;;;;;32.45;26.10;;;;;;;;;;2072663;28;20215;-62
2021/09/23 03:14:51;;;;;;;34.47;25.67;;;;;;;;;;2068595;28;20219;-62
2021/09/23 03:15:51;;;;;;;36.75;26.55;;;;;;;;;;2072419;28;20173;-63
2021/09/23 03:16:52;;;;;;;34.55;25.98;;;;;;;;;;2073405;28;20629;-62
2021/09/23 03:17:52;;;;;;;34.65;25.55;;;;;;;;;;2072540;28;20582;-62
2021/09/23 03:18:52;;;;;;;37.60;27.85;;;;;;;;;;2077507;28;20279;-62
2021/09/23 03:19:53;;;;;;;33.83;27.33;;;;;;;;;;2081635;28;20239;-60
2021/09/23 03:20:53;;;;;;;36.55;29.17;;;;;;;;;;2073116;28;20215;-63
2021/09/23 03:21:54;;;;;;;39.75;27.55;;;;;;;;;;2064930;28;20170;-60
2021/09/23 03:22:55;;;;;;;38.20;28.00;;;;;;;;;;2064009;28;20178;-56
2021/09/23 03:23:56;;;;;;;36.60;28.30;;;;;;;;;;2071573;28;20562;-58
2021/09/23 03:24:56;;;;;;;39.38;28.90;;;;;;;;;;2072719;28;20215;-60
2021/09/23 03:25:56;;;;;;;38.88;29.38;;;;;;;;;;2072239;28;20169;-59
2021/09/23 03:26:57;;;;;;;37.53;26.50;;;;;;;;;;2073172;28;20161;-62
2021/09/23 03:27:57;;;;;;;41.35;30.55;;;;;;;;;;2080684;28;20172;-59
2021/09/23 03:28:57;;;;;;;37.88;27.92;;;;;;;;;;2086095;28;20180;-61
2021/09/23 03:29:58;;;;;;;37.65;29.10;;;;;;;;;;2085788;28;20195;-61
2021/09/23 03:30:58;;;;;;;45.38;30.48;;;;;;;;;;2079685;28;20664;-61
2021/09/23 03:31:58;;;;;;;43.50;31.85;;;;;;;;;;2081133;28;20219;-61
2021/09/23 03:32:58;;;;;;;42.53;32.80;;;;;;;;;;2089586;28;20187;-62
2021/09/23 03:33:59;;;;;;;39.40;29.88;;;;;;;;;;2089654;28;20175;-59
2021/09/23 03:34:59;;;;;;;40.85;28.63;;;;;;;;;;2090428;28;20250;-62
2021/09/23 03:35:59;;;;;;;43.00;30.45;;;;;;;;;;2089469;28;20160;-61
2021/09/23 03:37:00;;;;;;;43.50;31.17;;;;;;;;;;2090112;28;20175;-62
2021/09/23 03:38:00;;;;;;;46.53;31.88;;;;;;;;;;2088423;28;20203;-59
2021/09/23 03:39:00;;;;;;;45.20;33.53;;;;;;;;;;2085020;28;20183;-60
2021/09/23 03:40:02;;;;;;;43.25;33.70;;;;;;;;;;2085264;28;20598;-59
2021/09/23 03:41:02;;;;;;;44.47;35.17;;;;;;;;;;2077776;28;20479;-58
2021/09/23 03:42:03;;;;;;;44.58;33.55;;;;;;;;;;2069347;28;20181;-62
2021/09/23 03:43:03;;;;;;;44.58;35.55;;;;;;;;;;2080553;28;20160;-60
2021/09/23 03:44:03;;;;;;;47.97;34.85;;;;;;;;;;2087829;28;20548;-60
2021/09/23 03:45:05;;;;;;;47.78;34.92;;;;;;;;;;2080524;28;20173;-61
2021/09/23 03:46:06;;;;;;;50.63;36.92;;;;;;;;;;2070367;28;20189;-60
2021/09/23 03:47:07;;;;;;;46.40;34.88;;;;;;;;;;2072637;28;20181;-59
2021/09/23 03:48:07;;;;;;;45.40;35.42;;;;;;;;;;2077288;28;20164;-61
2021/09/23 03:49:07;;;;;;;46.03;34.35;;;;;;;;;;2072060;28;20171;-61
2021/09/23 03:50:08;;;;;;;49.10;38.15;;;;;;;;;;2073125;28;20661;-61
2021/09/23 03:51:08;;;;;;;49.15;35.95;;;;;;;;;;2087258;28;20206;-61
2021/09/23 03:52:09;;;;;;;47.42;35.83;;;;;;;;;;2080576;28;20263;-62
2021/09/23 03:53:09;;;;;;;51.05;37.78;;;;;;;;;;2081465;28;20184;-61
2021/09/23 03:54:09;;;;;;;53.33;37.55;;;;;;;;;;2090041;28;20166;-63
2021/09/23 03:55:10;;;;;;;51.80;37.92;;;;;;;;;;2080642;28;20230;-62
2021/09/23 03:57:28;;;;;;;56.42;38.53;;;;;;;;;;2070195;28;20224;-67
2021/09/23 03:58:29;;;;;;;48.63;34.78;;;;;;;;;;2071465;28;20225;-68
2021/09/23 03:59:29;;;;;;;50.38;37.08;;;;;;;;;;2070944;28;20181;-68
2021/09/23 04:00:29;;;;;;;53.83;38.88;;;;;;;;;;2063682;28;20181;-67
2021/09/23 04:01:30;;;;;;;52.33;38.50;;;;;;;;;;2062008;28;20183;-68
2021/09/23 04:02:30;;;;;;;55.47;40.72;;;;;;;;;;2057364;28;20305;-69
2021/09/23 04:03:31;;;;;;;52.08;38.95;;;;;;;;;;2065136;28;20736;-66
2021/09/23 04:04:32;;;;;;;53.80;39.67;;;;;;;;;;2065083;28;20296;-68
2021/09/23 04:05:32;;;;;;;54.67;38.22;;;;;;;;;;2072231;28;20188;-69
2021/09/23 04:06:32;;;;;;;56.65;39.67;;;;;;;;;;2074624;28;20271;-68
2021/09/23 04:07:33;;;;;;;50.47;40.03;;;;;;;;;;2072807;28;20580;-65
2021/09/23 04:08:34;;;;;;;52.88;39.72;;;;;;;;;;2072014;28;20177;-68
2021/09/23 04:09:34;;;;;;;58.90;40.75;;;;;;;;;;2065511;28;20631;-67
2021/09/23 04:10:34;;;;;;;54.20;40.28;;;;;;;;;;2064880;28;20165;-69
2021/09/23 04:11:35;;;;;;;54.45;40.83;;;;;;;;;;2072402;28;20691;-68
2021/09/23 04:12:35;;;;;;;53.78;39.17;;;;;;;;;;2072521;28;20188;-69
2021/09/23 04:13:36;;;;;;;55.47;39.30;;;;;;;;;;2072980;28;20236;-67
2021/09/23 04:14:37;;;;;;;53.40;37.60;;;;;;;;;;2064596;28;20181;-68
2021/09/23 04:15:38;;;;;;;52.15;37.90;;;;;;;;;;2064923;28;20259;-67
2021/09/23 04:16:38;;;;;;;56.47;40.20;;;;;;;;;;2074191;28;20263;-68
2021/09/23 04:17:41;;;;;;;53.28;39.70;;;;;;;;;;2081003;28;20261;-68
2021/09/23 04:18:41;;;;;;;55.28;38.53;;;;;;;;;;2072999;28;20681;-68
2021/09/23 04:19:41;;;;;;;50.00;38.15;;;;;;;;;;2080893;28;20218;-66
2021/09/23 04:20:43;;;;;;;55.20;38.97;;;;;;;;;;2073064;28;20250;-68
2021/09/23 04:21:43;;;;;;;50.42;37.30;;;;;;;;;;2073973;28;20173;-69
2021/09/23 04:22:46;;;;;;;55.58;38.13;;;;;;;;;;2072808;28;20655;-68
2021/09/23 04:23:47;;;;;;;56.78;36.90;;;;;;;;;;2072917;28;20188;-68
2021/09/23 04:24:47;;;;;;;49.58;38.22;;;;;;;;;;2072997;28;20265;-69
2021/09/23 04:25:48;;;;;;;49.03;35.05;;;;;;;;;;2072774;28;20226;-67
2021/09/23 04:26:48;;;;;;;56.70;39.35;;;;;;;;;;2078911;28;20287;-67
2021/09/23 04:27:51;;;;;;;54.10;36.88;;;;;;;;;;2078241;28;20299;-68
2021/09/23 04:28:52;;;;;;;55.10;38.88;;;;;;;;;;2077869;28;20212;-69
2021/09/23 04:29:53;;;;;;;58.10;40.88;;;;;;;;;;2080128;28;20178;-68
2021/09/23 04:30:54;;;;;;;54.50;38.03;;;;;;;;;;2079652;28;20176;-68
2021/09/23 04:31:54;;;;;;;51.42;38.63;;;;;;;;;;2079932;28;20544;-68
2021/09/23 04:32:55;;;;;;;54.35;39.63;;;;;;;;;;2071383;28;20538;-68
2021/09/23 04:33:55;;;;;;;51.38;35.85;;;;;;;;;;2080189;28;20168;-69
2021/09/23 04:34:55;;;;;;;55.08;39.38;;;;;;;;;;2072322;28;20263;-68
2021/09/23 04:35:56;;;;;;;49.65;37.60;;;;;;;;;;2080142;28;20179;-68
2021/09/23 04:36:57;;;;;;;57.17;37.83;;;;;;;;;;2066602;28;20185;-67
2021/09/23 04:37:57;;;;;;;50.63;37.70;;;;;;;;;;2059029;28;20177;-67
2021/09/23 04:38:58;;;;;;;59.45;39.75;;;;;;;;;;2076004;28;20168;-67
2021/09/23 04:39:58;;;;;;;52.67;38.20;;;;;;;;;;2076263;28;20606;-68
2021/09/23 04:40:59;;;;;;;51.97;36.97;;;;;;;;;;2078345;28;20179;-72
2021/09/23 04:42:00;;;;;;;53.33;36.55;;;;;;;;;;2072107;28;20192;-67
2021/09/23 04:43:01;;;;;;;51.80;37.70;;;;;;;;;;2084159;28;20203;-68
2021/09/23 04:44:01;;;;;;;54.05;38.53;;;;;;;;;;2075549;28;20164;-66
2021/09/23 04:45:02;;;;;;;53.35;39.20;;;;;;;;;;2071648;28;20182;-65
2021/09/23 04:46:12;;;;;;;51.75;37.35;;;;;;;;;;2078809;28;20200;-68
2021/09/23 04:47:12;;;;;;;51.28;38.88;;;;;;;;;;2075382;28;20245;-67
2021/09/23 04:48:15;;;;;;;54.25;38.88;;;;;;;;;;2071895;28;20173;-67
2021/09/23 04:49:17;;;;;;;53.33;38.17;;;;;;;;;;2072674;28;20536;-68
2021/09/23 04:50:18;;;;;;;57.80;39.90;;;;;;;;;;2071331;28;20331;-67
2021/09/23 04:51:19;;;;;;;53.65;38.53;;;;;;;;;;2071831;28;20644;-68
2021/09/23 04:52:19;;;;;;;54.63;39.40;;;;;;;;;;2071851;28;20221;-68
2021/09/23 04:53:20;;;;;;;49.92;37.55;;;;;;;;;;2067186;28;20177;-68
2021/09/23 04:54:20;;;;;;;53.17;39.47;;;;;;;;;;2078773;28;20172;-68
2021/09/23 04:55:20;;;;;;;54.63;38.08;;;;;;;;;;2066545;28;20767;-68
2021/09/23 04:56:21;;;;;;;63.33;41.92;;;;;;;;;;2078313;28;20176;-67
2021/09/23 04:57:21;;;;;;;54.88;37.97;;;;;;;;;;2073911;28;20587;-67
2021/09/23 04:58:22;;;;;;;54.47;38.42;;;;;;;;;;2070561;28;20179;-68
2021/09/23 04:59:22;;;;;;;54.22;38.20;;;;;;;;;;2079653;28;20298;-67
2021/09/23 05:00:22;;;;;;;54.35;39.33;;;;;;;;;;2072906;28;20185;-68
2021/09/23 05:01:26;;;;;;;56.35;39.75;;;;;;;;;;2074731;28;20247;-68
2021/09/23 05:02:31;;;;;;;53.95;38.20;;;;;;;;;;2067943;28;20594;-68
2021/09/23 05:03:32;;;;;;;55.25;39.17;;;;;;;;;;2056196;28;20182;-67
2021/09/23 05:04:32;;;;;;;54.28;38.67;;;;;;;;;;2067046;28;20555;-68
2021/09/23 05:05:32;;;;;;;51.33;38.30;;;;;;;;;;2080581;28;20641;-69
2021/09/23 05:06:35;;;;;;;49.30;37.58;;;;;;;;;;2061780;28;20181;-68
2021/09/23 05:07:36;;;;;;;58.22;38.25;;;;;;;;;;2072139;28;20609;-67
2021/09/23 05:08:36;;;;;;;50.97;38.85;;;;;;;;;;2072705;28;20577;-67
2021/09/23 05:09:37;;;;;;;58.28;37.78;;;;;;;;;;2071832;28;20185;-68
2021/09/23 05:10:37;;;;;;;55.05;37.42;;;;;;;;;;2063680;28;20162;-69
2021/09/23 05:11:39;;;;;;;53.53;36.75;;;;;;;;;;2063536;28;20229;-69
2021/09/23 05:12:39;;;;;;;52.67;37.97;;;;;;;;;;2079607;28;20165;-67
2021/09/23 05:13:39;;;;;;;50.83;36.50;;;;;;;;;;2080347;28;20173;-68
2021/09/23 05:14:40;;;;;;;52.10;37.83;;;;;;;;;;2079760;28;20215;-68
2021/09/23 05:15:40;;;;;;;51.95;39.15;;;;;;;;;;2080038;28;20168;-67
2021/09/23 05:16:43;;;;;;;53.42;37.72;;;;;;;;;;2074766;28;20188;-68
2021/09/23 05:17:45;;;;;;;51.58;36.22;;;;;;;;;;2079895;28;20652;-68
2021/09/23 05:18:45;;;;;;;47.67;36.25;;;;;;;;;;2074385;28;20173;-68
2021/09/23 05:19:46;;;;;;;49.88;37.17;;;;;;;;;;2075774;28;20185;-68
2021/09/23 05:20:46;;;;;;;48.60;36.35;;;;;;;;;;2080350;28;20263;-68
2021/09/23 05:21:46;;;;;;;48.90;37.92;;;;;;;;;;2076316;28;20192;-68
2021/09/23 05:22:46;;;;;;;55.25;37.15;;;;;;;;;;2080483;28;20184;-67
2021/09/23 05:23:47;;;;;;;50.20;36.22;;;;;;;;;;2077540;28;20185;-67
2021/09/23 05:24:50;;;;;;;50.92;35.38;;;;;;;;;;2079893;28;20177;-67
2021/09/23 05:25:51;;;;;;;52.08;36.78;;;;;;;;;;2077791;28;20778;-68
2021/09/23 05:26:51;;;;;;;50.63;35.63;;;;;;;;;;2077207;28;20212;-67
2021/09/23 05:27:52;;;;;;;52.00;36.55;;;;;;;;;;2080347;28;20663;-66
2021/09/23 05:28:52;;;;;;;50.03;35.42;;;;;;;;;;2079621;28;20164;-68
2021/09/23 05:29:52;;;;;;;49.80;34.75;;;;;;;;;;2080169;28;20247;-68
2021/09/23 05:30:53;;;;;;;51.13;34.10;;;;;;;;;;2080280;28;20176;-67
2021/09/23 05:31:53;;;;;;;52.05;35.03;;;;;;;;;;2075568;28;20641;-68
2021/09/23 05:32:53;;;;;;;48.53;35.00;;;;;;;;;;2081205;28;20636;-69
2021/09/23 05:33:55;;;;;;;48.97;34.95;;;;;;;;;;2077870;28;20179;-69
2021/09/23 05:34:56;;;;;;;50.33;35.42;;;;;;;;;;2076324;28;20598;-68
2021/09/23 05:35:56;;;;;;;45.58;34.75;;;;;;;;;;2080130;28;20187;-69
2021/09/23 05:36:56;;;;;;;49.17;34.50;;;;;;;;;;2080228;28;20184;-68
2021/09/23 05:37:57;;;;;;;47.20;33.17;;;;;;;;;;2077270;28;20226;-65
2021/09/23 05:38:59;;;;;;;51.00;35.22;;;;;;;;;;2079983;28;20181;-68
2021/09/23 05:39:59;;;;;;;48.10;33.90;;;;;;;;;;2081029;28;20302;-68
2021/09/23 05:41:01;;;;;;;49.97;36.33;;;;;;;;;;2076657;28;20242;-67
2021/09/23 05:42:02;;;;;;;47.88;33.88;;;;;;;;;;2076483;28;20172;-68
2021/09/23 05:43:03;;;;;;;52.13;35.03;;;;;;;;;;2080342;28;20731;-68
2021/09/23 05:44:03;;;;;;;47.03;33.67;;;;;;;;;;2080601;28;20215;-68
2021/09/23 05:45:06;;;;;;;45.33;33.03;;;;;;;;;;2077885;28;20160;-67
2021/09/23 05:46:06;;;;;;;46.80;33.35;;;;;;;;;;2080715;28;20184;-68
2021/09/23 05:47:07;;;;;;;49.47;33.25;;;;;;;;;;2078649;28;20210;-69
2021/09/23 05:48:08;;;;;;;42.70;32.47;;;;;;;;;;2077506;28;20219;-67
2021/09/23 05:49:10;;;;;;;44.88;31.45;;;;;;;;;;2074485;28;20177;-67
2021/09/23 05:50:12;;;;;;;51.55;34.03;;;;;;;;;;2080053;28;20211;-64
2021/09/23 05:51:12;;;;;;;46.30;34.03;;;;;;;;;;2092890;28;20668;-68
2021/09/23 05:52:16;;;;;;;40.60;32.58;;;;;;;;;;2085424;28;20185;-66
2021/09/23 05:53:17;;;;;;;44.03;32.25;;;;;;;;;;2086864;28;20252;-66
2021/09/23 05:54:17;;;;;;;45.15;32.17;;;;;;;;;;2090167;28;20198;-67
2021/09/23 05:55:18;;;;;;;45.63;31.73;;;;;;;;;;2079445;28;20180;-68
2021/09/23 05:56:18;;;;;;;44.33;31.58;;;;;;;;;;2077125;28;20650;-67
2021/09/23 05:57:32;;;;;;;42.83;31.73;;;;;;;;;;2085342;28;20179;-68
2021/09/23 05:58:32;;;;;;;45.17;32.88;;;;;;;;;;2073558;28;20160;-68
2021/09/23 05:59:33;;;;;;;46.28;33.90;;;;;;;;;;2077450;28;20649;-66